Time;durP1;ratioP1;P1;durP2;ratioP2;P2;SDS_P1;SDS_P2;PMS_P1;PMS_P2;Temp;Humidity;BMP_temperature;BMP_pressure;BME280_temperature;BME280_humidity;BME280_pressure;Samples;Min_cycle;Max_cycle;Signal;HPM_P1;HPM_P2
2022/06/29 00:00:09;;;;;;;9.32;4.30;;;17.30;99.90;;;;;;5068907;28;20045;-67
2022/06/29 00:02:35;;;;;;;8.00;4.50;;;17.30;99.90;;;;;;5068345;28;20050;-67
2022/06/29 00:05:03;;;;;;;9.32;4.53;;;17.30;99.90;;;;;;5081715;28;20036;-67
2022/06/29 00:07:29;;;;;;;10.82;4.90;;;17.30;99.90;;;;;;5087205;28;20388;-67
2022/06/29 00:09:54;;;;;;;9.57;4.80;;;17.30;99.90;;;;;;5087966;28;20040;-68
2022/06/29 00:12:20;;;;;;;9.45;4.68;;;17.30;99.90;;;;;;5086872;28;20131;-67
2022/06/29 00:14:46;;;;;;;8.15;4.60;;;17.30;99.90;;;;;;5082281;28;20119;-67
2022/06/29 00:17:12;;;;;;;5.93;4.30;;;17.30;99.90;;;;;;5067900;28;20500;-67
2022/06/29 00:19:39;;;;;;;6.45;4.60;;;17.30;99.90;;;;;;5074044;28;20043;-66
2022/06/29 00:22:06;;;;;;;9.50;4.40;;;17.20;99.90;;;;;;5087432;28;20050;-67
2022/06/29 00:24:32;;;;;;;10.27;5.10;;;17.20;99.90;;;;;;5071317;28;20065;-67
2022/06/29 00:26:58;;;;;;;8.68;5.07;;;17.20;99.90;;;;;;5066804;28;20044;-67
2022/06/29 00:29:24;;;;;;;8.15;4.88;;;17.10;99.90;;;;;;5067608;28;20385;-68
2022/06/29 00:31:49;;;;;;;8.38;5.10;;;17.10;99.90;;;;;;5080620;28;20055;-67
2022/06/29 00:34:15;;;;;;;8.18;5.13;;;17.00;99.90;;;;;;5070419;28;20055;-67
2022/06/29 00:36:41;;;;;;;9.02;5.00;;;17.00;99.90;;;;;;5066182;28;20056;-67
2022/06/29 00:39:07;;;;;;;8.38;5.03;;;17.30;99.90;;;;;;5068273;28;20400;-69
2022/06/29 00:41:40;;;;;;;12.93;5.57;;;17.00;99.90;;;;;;5048193;28;20091;-69
2022/06/29 00:44:09;;;;;;;11.98;5.40;;;16.90;99.90;;;;;;5068560;28;20060;-70
2022/06/29 00:46:36;;;;;;;7.72;4.93;;;17.30;99.90;;;;;;5067409;28;20045;-70
2022/06/29 00:49:02;;;;;;;8.60;5.43;;;16.90;99.90;;;;;;5067492;28;20048;-69
2022/06/29 00:51:31;;;;;;;10.00;5.00;;;16.90;99.90;;;;;;5067229;28;20382;-67
2022/06/29 00:53:58;;;;;;;10.15;5.20;;;16.90;99.90;;;;;;5054656;28;20194;-68
2022/06/29 00:56:25;;;;;;;11.43;5.50;;;16.80;99.90;;;;;;5048308;28;20452;-67
2022/06/29 00:58:53;;;;;;;7.45;4.95;;;16.80;99.90;;;;;;5068157;28;20044;-69
2022/06/29 01:01:19;;;;;;;8.93;4.80;;;16.70;99.90;;;;;;5089065;28;20040;-67
2022/06/29 01:03:45;;;;;;;6.80;4.75;;;16.70;99.90;;;;;;5092000;28;20510;-67
2022/06/29 01:06:11;;;;;;;6.45;4.88;;;16.70;99.90;;;;;;5090489;28;20044;-67
2022/06/29 01:08:37;;;;;;;8.65;5.20;;;16.70;99.90;;;;;;5057967;28;20054;-68
2022/06/29 01:11:03;;;;;;;10.70;5.47;;;16.70;99.90;;;;;;5090892;28;20411;-67
2022/06/29 01:13:28;;;;;;;8.80;5.10;;;16.90;99.90;;;;;;5073657;28;20044;-67
2022/06/29 01:15:54;;;;;;;6.75;5.10;;;16.70;99.90;;;;;;5068191;28;20130;-67
2022/06/29 01:18:19;;;;;;;9.00;5.45;;;16.60;99.90;;;;;;5071083;28;20055;-68
2022/06/29 01:20:45;;;;;;;11.07;5.55;;;16.50;99.90;;;;;;5090597;28;20055;-67
2022/06/29 01:23:11;;;;;;;11.18;6.03;;;16.60;99.90;;;;;;5080857;28;20529;-68
2022/06/29 01:25:36;;;;;;;7.43;5.30;;;16.50;99.90;;;;;;5057599;28;20617;-67
2022/06/29 01:28:02;;;;;;;11.82;5.72;;;16.90;99.90;;;;;;5090540;28;20105;-68
2022/06/29 01:30:28;;;;;;;8.70;5.20;;;16.40;99.90;;;;;;5061377;28;20057;-67
2022/06/29 01:32:54;;;;;;;7.20;5.63;;;16.40;99.90;;;;;;5076764;28;20059;-68
2022/06/29 01:35:22;;;;;;;12.15;5.47;;;16.40;99.90;;;;;;5090554;28;20060;-67
2022/06/29 01:37:49;;;;;;;9.50;5.22;;;16.40;99.90;;;;;;5072119;28;20044;-67
2022/06/29 01:40:14;;;;;;;8.93;5.25;;;16.40;99.90;;;;;;5090847;28;20055;-68
2022/06/29 01:42:40;;;;;;;10.80;5.70;;;16.80;99.90;;;;;;5090486;28;20040;-67
2022/06/29 01:45:07;;;;;;;7.88;5.53;;;16.50;99.90;;;;;;5090131;28;20055;-67
2022/06/29 01:47:32;;;;;;;9.27;5.50;;;16.40;99.90;;;;;;5089148;28;20050;-67
2022/06/29 01:49:58;;;;;;;7.53;5.35;;;16.40;99.90;;;;;;5090735;28;20480;-68
2022/06/29 01:52:24;;;;;;;8.35;5.45;;;16.70;99.90;;;;;;5088531;28;20059;-68
2022/06/29 01:54:49;;;;;;;8.52;5.50;;;16.50;99.90;;;;;;5074723;28;20420;-68
2022/06/29 01:57:15;;;;;;;11.82;5.95;;;16.50;99.90;;;;;;5072849;28;20047;-68
2022/06/29 01:59:40;;;;;;;8.00;5.72;;;16.60;99.90;;;;;;5087723;28;20028;-68
2022/06/29 02:02:07;;;;;;;7.75;5.22;;;16.80;99.90;;;;;;5071486;28;20258;-68
2022/06/29 02:04:33;;;;;;;11.80;5.80;;;16.60;99.90;;;;;;5053143;28;20484;-68
2022/06/29 02:06:59;;;;;;;7.95;5.20;;;16.60;99.90;;;;;;5085434;28;20064;-68
2022/06/29 02:09:24;;;;;;;8.95;5.47;;;16.60;99.90;;;;;;5069256;28;20048;-68
2022/06/29 02:11:50;;;;;;;7.07;5.10;;;16.80;99.90;;;;;;5084691;28;20133;-68
2022/06/29 02:14:16;;;;;;;11.02;6.05;;;16.90;99.90;;;;;;5068927;28;20410;-68
2022/06/29 02:16:42;;;;;;;8.52;5.07;;;16.70;99.90;;;;;;5069648;28;20460;-68
2022/06/29 02:19:07;;;;;;;10.02;5.55;;;16.80;99.90;;;;;;5051665;28;20102;-68
2022/06/29 02:21:33;;;;;;;8.00;5.82;;;16.70;99.90;;;;;;5083240;28;20056;-68
2022/06/29 02:23:59;;;;;;;8.23;5.65;;;16.70;99.90;;;;;;5090469;28;20460;-68
2022/06/29 02:26:24;;;;;;;7.10;6.00;;;16.70;99.90;;;;;;5069045;28;20048;-68
2022/06/29 02:28:50;;;;;;;10.05;5.93;;;17.40;99.90;;;;;;5055134;28;20104;-68
2022/06/29 02:36:44;;;;;;;7.25;5.68;;;16.70;99.90;;;;;;5072026;28;20590;-67
2022/06/29 02:39:10;;;;;;;8.70;5.88;;;16.80;99.90;;;;;;5072010;28;20058;-68
2022/06/29 02:41:35;;;;;;;6.72;4.95;;;16.70;99.90;;;;;;5072355;28;20043;-68
2022/06/29 02:44:01;;;;;;;9.57;5.80;;;16.70;99.90;;;;;;5090414;28;20127;-68
2022/06/29 02:46:26;;;;;;;9.45;6.20;;;16.70;99.90;;;;;;5089109;28;20096;-68
2022/06/29 02:48:52;;;;;;;7.20;5.35;;;16.60;99.90;;;;;;5073890;28;20422;-68
2022/06/29 02:51:18;;;;;;;13.07;5.53;;;16.60;99.90;;;;;;5067890;28;20750;-67
2022/06/29 02:53:43;;;;;;;9.07;5.45;;;16.80;99.90;;;;;;5036992;28;20037;-67
2022/06/29 02:56:09;;;;;;;8.38;5.72;;;16.70;99.90;;;;;;5049051;28;20489;-68
2022/06/29 02:58:34;;;;;;;7.40;5.68;;;16.60;99.90;;;;;;5092012;28;20448;-68
2022/06/29 03:01:00;;;;;;;9.32;5.63;;;16.60;99.90;;;;;;5086208;28;20041;-68
2022/06/29 03:03:26;;;;;;;8.50;5.75;;;16.60;99.90;;;;;;5089854;28;20556;-67
2022/06/29 03:05:51;;;;;;;8.88;5.57;;;16.60;99.90;;;;;;5089329;28;20044;-68
2022/06/29 03:08:17;;;;;;;8.02;5.50;;;16.70;99.90;;;;;;5088393;28;20048;-67
2022/06/29 03:10:43;;;;;;;8.88;5.80;;;16.70;99.90;;;;;;5088878;28;20055;-67
2022/06/29 03:13:08;;;;;;;8.13;5.25;;;16.60;99.90;;;;;;5070919;28;20032;-67
2022/06/29 03:15:34;;;;;;;9.20;5.50;;;16.60;99.90;;;;;;5062629;28;20086;-67
2022/06/29 03:18:00;;;;;;;7.43;5.47;;;16.60;99.90;;;;;;5069004;28;20033;-68
2022/06/29 03:20:26;;;;;;;8.85;5.70;;;16.80;99.90;;;;;;5067792;28;20408;-68
2022/06/29 03:22:51;;;;;;;8.90;5.47;;;16.70;99.90;;;;;;5049424;28;20499;-68
2022/06/29 03:25:17;;;;;;;9.15;5.68;;;16.70;99.90;;;;;;5061116;28;20040;-67
2022/06/29 03:27:43;;;;;;;9.40;5.72;;;16.60;99.90;;;;;;5076257;28;20400;-67
2022/06/29 03:30:10;;;;;;;9.75;6.10;;;16.80;99.90;;;;;;5070010;28;20055;-67
2022/06/29 03:32:35;;;;;;;8.45;5.85;;;16.60;99.90;;;;;;5088746;28;20040;-68
2022/06/29 03:35:02;;;;;;;8.48;6.30;;;16.60;99.90;;;;;;5088258;28;20062;-68
2022/06/29 03:37:28;;;;;;;9.35;6.20;;;16.60;99.90;;;;;;5087863;28;20266;-67
2022/06/29 03:39:53;;;;;;;9.07;6.00;;;16.60;99.90;;;;;;5072712;28;20515;-68
2022/06/29 03:42:19;;;;;;;9.27;5.80;;;16.60;99.90;;;;;;5078552;28;20119;-68
2022/06/29 03:44:44;;;;;;;7.30;5.68;;;16.60;99.90;;;;;;5070834;28;20131;-68
2022/06/29 03:47:10;;;;;;;9.38;6.38;;;16.70;99.90;;;;;;5068553;28;20033;-68
2022/06/29 03:49:36;;;;;;;9.95;6.20;;;16.70;99.90;;;;;;5068567;28;20048;-67
2022/06/29 03:52:05;;;;;;;7.65;5.72;;;16.70;99.90;;;;;;5067093;28;20032;-68
2022/06/29 03:54:31;;;;;;;6.60;5.53;;;16.60;99.90;;;;;;5068616;28;20063;-68
2022/06/29 03:56:57;;;;;;;11.45;6.15;;;16.60;99.90;;;;;;5067197;28;20449;-68
2022/06/29 03:59:23;;;;;;;12.55;6.05;;;17.10;99.90;;;;;;5050225;28;20048;-68
2022/06/29 04:01:49;;;;;;;10.50;6.15;;;16.60;99.90;;;;;;5056774;28;20040;-68
2022/06/29 04:04:15;;;;;;;8.30;6.38;;;16.60;99.90;;;;;;5087771;28;20084;-68
2022/06/29 04:06:41;;;;;;;9.73;6.60;;;16.60;99.90;;;;;;5087314;28;20040;-68
2022/06/29 04:09:08;;;;;;;8.80;6.22;;;16.60;99.90;;;;;;5080445;28;20381;-67
2022/06/29 04:11:48;;;;;;;10.80;6.10;;;16.60;99.90;;;;;;5031800;28;20189;-68
2022/06/29 04:14:15;;;;;;;8.98;6.35;;;16.60;99.90;;;;;;5065704;28;20064;-68
2022/06/29 04:16:41;;;;;;;9.05;6.28;;;16.70;99.90;;;;;;5048104;28;20488;-68
2022/06/29 04:19:06;;;;;;;8.60;6.53;;;16.70;99.90;;;;;;5047960;28;20119;-68
2022/06/29 04:21:32;;;;;;;9.23;6.63;;;16.70;99.90;;;;;;5066721;28;20040;-69
2022/06/29 04:23:57;;;;;;;13.55;7.07;;;17.20;99.90;;;;;;5070178;28;20124;-68
2022/06/29 04:26:23;;;;;;;10.88;6.80;;;16.80;99.90;;;;;;5067760;28;20388;-67
2022/06/29 04:28:48;;;;;;;10.85;6.15;;;16.60;99.90;;;;;;5070822;28;20040;-68
2022/06/29 04:31:14;;;;;;;10.25;6.22;;;16.70;99.90;;;;;;5087383;28;20044;-68
2022/06/29 04:33:40;;;;;;;9.00;6.20;;;16.80;99.90;;;;;;5087849;28;20072;-67
2022/06/29 04:36:05;;;;;;;7.25;6.40;;;16.60;99.90;;;;;;5060586;28;20519;-67
2022/06/29 04:38:31;;;;;;;10.40;6.05;;;16.60;99.90;;;;;;5050025;28;20056;-70
2022/06/29 04:40:59;;;;;;;9.82;6.35;;;16.60;99.90;;;;;;5067969;28;20052;-68
2022/06/29 04:43:27;;;;;;;11.63;7.28;;;16.60;99.90;;;;;;5068186;28;20033;-68
2022/06/29 04:48:37;;;;;;;12.45;6.50;;;16.70;99.90;;;;;;5050065;28;20505;-68
2022/06/29 04:51:03;;;;;;;15.25;7.10;;;16.70;99.90;;;;;;5074723;28;20038;-69
2022/06/29 04:53:28;;;;;;;9.98;6.40;;;16.80;99.90;;;;;;5063516;28;20068;-68
2022/06/29 04:55:54;;;;;;;8.70;6.82;;;16.80;99.90;;;;;;5047884;28;20100;-68
2022/06/29 04:58:20;;;;;;;8.32;6.53;;;16.90;99.90;;;;;;5047915;28;20440;-68
2022/06/29 05:00:45;;;;;;;9.18;6.57;;;16.90;99.90;;;;;;5062924;28;20044;-68
2022/06/29 05:03:11;;;;;;;9.38;7.10;;;16.90;99.90;;;;;;5029955;28;20128;-68
2022/06/29 05:05:37;;;;;;;14.27;6.43;;;16.90;99.90;;;;;;5073451;28;20044;-68
2022/06/29 05:08:03;;;;;;;10.27;6.40;;;16.90;99.90;;;;;;5086757;28;20040;-68
2022/06/29 05:10:28;;;;;;;11.05;6.68;;;17.00;99.90;;;;;;5087046;28;20036;-69
2022/06/29 05:12:54;;;;;;;7.72;6.18;;;17.00;99.90;;;;;;5087740;28;20046;-67
2022/06/29 05:15:20;;;;;;;8.60;6.70;;;17.10;99.90;;;;;;5069411;28;20044;-68
2022/06/29 05:17:47;;;;;;;8.13;6.65;;;17.10;99.90;;;;;;5086195;28;20036;-70
2022/06/29 05:20:14;;;;;;;10.30;6.13;;;17.10;99.90;;;;;;5085825;28;20084;-68
2022/06/29 05:22:39;;;;;;;14.18;6.85;;;17.20;99.90;;;;;;5085835;28;20490;-68
2022/06/29 05:25:06;;;;;;;7.90;6.22;;;17.40;99.90;;;;;;5073743;28;20041;-68
2022/06/29 05:27:31;;;;;;;9.43;6.30;;;17.30;99.90;;;;;;5046788;28;20130;-68
2022/06/29 05:29:57;;;;;;;7.43;5.90;;;17.30;99.90;;;;;;5046526;28;20128;-69
2022/06/29 05:32:23;;;;;;;6.88;5.63;;;17.40;99.90;;;;;;5058492;28;20048;-68
2022/06/29 05:34:48;;;;;;;10.38;6.38;;;17.40;99.90;;;;;;5087257;28;20120;-68
2022/06/29 05:37:14;;;;;;;9.43;5.70;;;17.50;99.90;;;;;;5086069;28;20044;-68
2022/06/29 05:39:42;;;;;;;11.00;6.68;;;17.50;99.90;;;;;;5087587;28;20112;-68
2022/06/29 05:42:08;;;;;;;8.02;6.38;;;17.40;99.90;;;;;;5067015;28;20083;-68
2022/06/29 05:44:33;;;;;;;8.93;5.95;;;17.50;99.90;;;;;;5089561;28;20141;-68
2022/06/29 05:46:59;;;;;;;16.00;5.82;;;17.50;99.90;;;;;;5066247;28;20043;-68
2022/06/29 05:49:25;;;;;;;7.90;5.72;;;17.60;99.90;;;;;;5052332;28;20063;-68
2022/06/29 05:51:50;;;;;;;9.45;5.93;;;17.70;99.90;;;;;;5072741;28;20044;-68
2022/06/29 05:54:16;;;;;;;9.75;5.80;;;17.70;99.90;;;;;;5071932;28;20039;-68
2022/06/29 05:56:42;;;;;;;12.95;5.82;;;17.80;99.90;;;;;;5069503;28;20083;-68
2022/06/29 05:59:07;;;;;;;12.13;5.15;;;17.80;99.90;;;;;;5070392;28;20045;-68
2022/06/29 06:01:33;;;;;;;14.35;5.88;;;17.90;99.90;;;;;;5073087;28;20028;-69
2022/06/29 06:03:58;;;;;;;13.25;5.93;;;17.90;99.90;;;;;;5085025;28;20044;-68
2022/06/29 06:06:24;;;;;;;20.13;5.90;;;17.90;99.90;;;;;;5068755;28;20036;-68
2022/06/29 06:08:50;;;;;;;11.77;5.55;;;17.90;99.90;;;;;;5053157;28;20118;-69
2022/06/29 06:11:15;;;;;;;13.93;5.90;;;18.30;99.90;;;;;;5068605;28;20525;-70
2022/06/29 06:13:41;;;;;;;18.95;5.93;;;18.00;99.90;;;;;;5070378;28;20396;-69
2022/06/29 06:16:07;;;;;;;11.98;5.30;;;18.00;99.90;;;;;;5057704;28;20048;-69
2022/06/29 06:18:33;;;;;;;11.75;5.45;;;18.00;99.90;;;;;;5069283;28;20090;-69
2022/06/29 06:20:58;;;;;;;10.95;5.32;;;18.00;99.90;;;;;;5077171;28;20052;-70
2022/06/29 06:23:24;;;;;;;12.95;5.30;;;18.10;99.90;;;;;;5081840;28;20036;-70
2022/06/29 06:25:49;;;;;;;10.27;5.25;;;18.20;99.90;;;;;;5069480;28;20457;-69
2022/06/29 06:28:15;;;;;;;11.00;4.80;;;18.20;99.90;;;;;;5070067;28;20101;-69
2022/06/29 06:30:41;;;;;;;13.00;4.70;;;18.30;99.90;;;;;;5070092;28;20151;-70
2022/06/29 06:33:06;;;;;;;18.60;4.78;;;18.40;99.90;;;;;;5069233;28;20139;-69
2022/06/29 06:35:32;;;;;;;12.20;4.90;;;18.40;99.90;;;;;;5068965;28;20055;-70
2022/06/29 06:37:58;;;;;;;13.15;4.57;;;18.50;99.90;;;;;;5054365;28;20039;-69
2022/06/29 06:43:07;;;;;;;10.63;4.32;;;18.70;99.90;;;;;;5069678;28;20044;-69
2022/06/29 06:45:33;;;;;;;10.77;4.32;;;18.80;99.90;;;;;;5063496;28;20063;-70
2022/06/29 06:47:58;;;;;;;8.13;4.32;;;19.00;99.90;;;;;;5049009;28;20307;-69
2022/06/29 06:50:24;;;;;;;6.05;3.55;;;19.00;99.90;;;;;;5048532;28;20538;-69
2022/06/29 06:52:50;;;;;;;8.82;3.40;;;19.20;99.90;;;;;;5048587;28;20047;-70
2022/06/29 06:55:15;;;;;;;9.27;3.50;;;19.40;99.90;;;;;;5063635;28;20045;-70
2022/06/29 06:57:41;;;;;;;6.50;3.53;;;19.40;99.90;;;;;;5068558;28;20550;-70
2022/06/29 07:00:09;;;;;;;7.60;3.30;;;19.60;99.90;;;;;;5068905;28;20121;-67
2022/06/29 07:02:35;;;;;;;7.18;3.15;;;19.60;99.90;;;;;;5050812;28;20342;-67
2022/06/29 07:05:01;;;;;;;6.13;3.20;;;19.70;99.90;;;;;;5034751;28;20099;-68
2022/06/29 07:07:27;;;;;;;6.70;3.03;;;19.70;99.90;;;;;;5055145;28;20131;-68
2022/06/29 07:09:53;;;;;;;5.90;3.13;;;19.80;99.90;;;;;;5064488;28;20110;-68
2022/06/29 07:12:18;;;;;;;5.90;3.05;;;19.80;99.90;;;;;;5048634;28;20064;-68
2022/06/29 07:14:44;;;;;;;5.13;2.65;;;19.90;99.90;;;;;;5048234;28;20052;-69
2022/06/29 07:17:09;;;;;;;4.82;2.95;;;20.00;99.90;;;;;;5031289;28;20401;-68
2022/06/29 07:19:35;;;;;;;7.05;3.20;;;20.00;99.90;;;;;;5060231;28;20143;-68
2022/06/29 07:22:01;;;;;;;5.95;2.97;;;20.10;99.90;;;;;;5066898;28;20044;-68
2022/06/29 07:24:26;;;;;;;5.03;2.90;;;20.10;99.90;;;;;;5068392;28;20051;-70
2022/06/29 07:26:52;;;;;;;5.53;2.90;;;20.20;99.90;;;;;;5068124;28;20097;-69
2022/06/29 07:29:18;;;;;;;7.35;3.13;;;20.30;99.90;;;;;;5067323;28;20583;-69
2022/06/29 07:31:43;;;;;;;5.93;2.65;;;20.40;99.90;;;;;;5076714;28;20078;-67
2022/06/29 07:34:09;;;;;;;5.28;2.92;;;20.40;99.90;;;;;;5087663;28;20492;-72
2022/06/29 07:36:35;;;;;;;6.88;3.15;;;20.50;99.90;;;;;;5046682;28;20053;-71
2022/06/29 07:39:00;;;;;;;5.13;3.10;;;20.50;99.90;;;;;;5079172;28;20040;-71
2022/06/29 07:41:26;;;;;;;8.45;2.88;;;20.60;99.90;;;;;;5070959;28;20044;-71
2022/06/29 07:43:51;;;;;;;4.25;2.60;;;20.70;99.90;;;;;;5062945;28;20051;-71
2022/06/29 07:46:17;;;;;;;5.50;2.90;;;20.70;99.90;;;;;;5062515;28;20109;-71
2022/06/29 07:48:43;;;;;;;7.00;2.40;;;20.80;99.90;;;;;;5068362;28;20477;-71
2022/06/29 07:51:09;;;;;;;5.88;2.63;;;20.90;99.90;;;;;;5054830;28;20110;-73
2022/06/29 07:53:34;;;;;;;6.15;2.53;;;20.90;99.90;;;;;;5077393;28;20093;-73
2022/06/29 07:56:00;;;;;;;4.35;2.47;;;21.00;99.90;;;;;;5066528;28;20060;-73
2022/06/29 07:58:26;;;;;;;6.78;2.50;;;20.90;99.90;;;;;;5072689;28;20124;-74
2022/06/29 08:00:52;;;;;;;7.80;2.53;;;21.10;99.90;;;;;;5050469;28;20489;-74
2022/06/29 08:03:18;;;;;;;5.60;2.50;;;21.30;99.90;;;;;;5067226;28;20627;-75
2022/06/29 08:05:45;;;;;;;4.20;2.10;;;21.40;99.90;;;;;;5067205;28;20207;-74
2022/06/29 08:08:11;;;;;;;6.20;2.60;;;21.40;99.90;;;;;;5048873;28;20044;-74
2022/06/29 08:10:37;;;;;;;5.30;2.33;;;21.60;99.90;;;;;;5028462;28;20060;-74
2022/06/29 08:13:02;;;;;;;4.05;2.28;;;21.60;99.90;;;;;;5047358;28;20382;-74
2022/06/29 08:15:29;;;;;;;4.72;2.40;;;21.70;99.90;;;;;;5046995;28;20092;-74
2022/06/29 08:17:55;;;;;;;6.32;2.60;;;21.70;99.90;;;;;;5047125;28;20052;-74
2022/06/29 08:20:21;;;;;;;4.15;2.60;;;21.90;99.90;;;;;;5046852;28;20044;-74
2022/06/29 08:22:47;;;;;;;4.18;2.40;;;22.00;99.90;;;;;;5046771;28;20052;-74
2022/06/29 08:25:13;;;;;;;5.18;2.30;;;22.10;99.90;;;;;;5062448;28;20052;-74
2022/06/29 08:27:40;;;;;;;5.25;2.50;;;22.20;99.90;;;;;;5046368;28;20037;-74
2022/06/29 08:30:07;;;;;;;6.22;2.20;;;22.40;99.90;;;;;;5054188;28;20158;-73
2022/06/29 08:32:33;;;;;;;3.90;2.15;;;22.60;99.90;;;;;;5066512;28;20190;-74
2022/06/29 08:35:01;;;;;;;4.38;2.40;;;22.80;99.90;;;;;;5074992;28;20107;-75
2022/06/29 08:37:28;;;;;;;4.25;2.40;;;23.00;99.90;;;;;;5067081;28;20048;-74
2022/06/29 08:39:54;;;;;;;6.25;2.42;;;23.20;99.90;;;;;;5064548;28;20492;-75
2022/06/29 08:42:23;;;;;;;6.32;2.40;;;23.50;99.90;;;;;;5067087;28;20139;-74
2022/06/29 08:44:50;;;;;;;7.47;2.63;;;23.60;99.90;;;;;;5090473;28;20044;-74
2022/06/29 08:47:16;;;;;;;3.70;2.40;;;23.90;99.90;;;;;;5091459;28;20036;-74
2022/06/29 08:49:44;;;;;;;6.40;2.38;;;23.90;99.90;;;;;;5086146;28;20047;-74
2022/06/29 08:52:10;;;;;;;4.47;2.40;;;24.10;99.90;;;;;;5070182;28;20055;-74
2022/06/29 08:54:40;;;;;;;4.65;2.80;;;24.30;99.90;;;;;;5029150;28;20037;-74
2022/06/29 08:57:07;;;;;;;5.25;2.47;;;24.40;99.90;;;;;;5062843;28;20066;-74
2022/06/29 08:59:34;;;;;;;5.72;2.60;;;24.40;99.90;;;;;;5058577;28;20231;-74
2022/06/29 09:02:00;;;;;;;6.07;2.42;;;24.50;99.90;;;;;;5041211;28;20087;-74
2022/06/29 09:04:26;;;;;;;4.28;2.50;;;24.50;99.90;;;;;;5070457;28;20049;-74
2022/06/29 09:06:53;;;;;;;4.68;2.30;;;24.40;99.90;;;;;;5058046;28;20094;-74
2022/06/29 09:09:19;;;;;;;5.43;2.70;;;24.60;99.90;;;;;;5066662;28;20040;-74
2022/06/29 09:11:46;;;;;;;6.18;2.58;;;24.60;99.90;;;;;;5067262;28;20041;-74
2022/06/29 09:14:17;;;;;;;7.50;2.40;;;24.50;99.90;;;;;;5048577;28;20382;-74
2022/06/29 09:16:56;;;;;;;4.95;2.40;;;24.50;99.90;;;;;;5069036;28;20074;-78
2022/06/29 09:19:24;;;;;;;5.00;2.42;;;24.50;99.90;;;;;;5069359;28;20119;-76
2022/06/29 09:21:52;;;;;;;4.88;2.58;;;24.70;99.90;;;;;;5077165;28;20044;-75
2022/06/29 09:24:20;;;;;;;8.75;2.38;;;24.80;99.90;;;;;;5084969;28;20036;-75
2022/06/29 09:26:53;;;;;;;7.18;2.20;;;24.70;99.90;;;;;;5055681;28;20445;-76
2022/06/29 09:29:21;;;;;;;7.20;2.38;;;25.10;99.90;;;;;;5063347;28;20870;-76
2022/06/29 09:32:04;;;;;;;5.40;2.08;;;25.10;99.90;;;;;;5051616;28;20416;-77
2022/06/29 09:34:30;;;;;;;8.15;2.40;;;25.50;99.90;;;;;;5066080;28;20127;-77
2022/06/29 09:36:57;;;;;;;5.70;2.10;;;25.60;99.30;;;;;;5069404;28;20511;-77
2022/06/29 09:39:45;;;;;;;4.82;2.00;;;25.90;99.20;;;;;;5052667;28;20567;-74
2022/06/29 09:42:15;;;;;;;5.72;2.00;;;25.90;98.80;;;;;;5068696;28;20123;-75
2022/06/29 09:44:42;;;;;;;4.00;2.13;;;25.70;98.60;;;;;;5070121;28;20045;-78
2022/06/29 09:47:11;;;;;;;3.45;2.10;;;25.80;98.80;;;;;;5085992;28;20058;-75
2022/06/29 09:49:37;;;;;;;4.15;2.00;;;25.90;99.00;;;;;;5056036;28;20365;-76
2022/06/29 09:52:05;;;;;;;5.43;2.10;;;26.20;99.50;;;;;;5070285;28;20045;-75
2022/06/29 09:54:51;;;;;;;4.05;2.10;;;26.30;99.00;;;;;;5075309;28;20047;-74
2022/06/29 09:57:19;;;;;;;;;;;26.30;98.80;;;;;;5065023;28;20189;-74
2022/06/29 10:02:37;;;;;;;3.45;2.10;;;26.60;98.50;;;;;;5051053;28;20120;-75
2022/06/29 10:05:15;;;;;;;5.22;2.25;;;26.80;98.10;;;;;;5069399;28;20041;-75
2022/06/29 10:07:47;;;;;;;5.63;2.03;;;27.30;96.10;;;;;;5069462;28;20048;-76
2022/06/29 10:10:15;;;;;;;8.73;2.20;;;27.80;95.40;;;;;;5068606;28;20091;-74
2022/06/29 10:16:02;;;;;;;5.93;2.03;;;30.20;93.00;;;;;;5072059;28;20374;-76
2022/06/29 10:19:02;;;;;;;5.18;2.28;;;30.90;90.70;;;;;;5064610;28;20041;-76
2022/06/29 10:21:30;;;;;;;5.28;2.00;;;31.30;90.50;;;;;;5031545;28;20057;-76
2022/06/29 10:23:57;;;;;;;3.70;2.17;;;32.90;89.00;;;;;;5048492;28;20123;-77
2022/06/29 10:26:35;;;;;;;5.07;1.77;;;34.70;81.90;;;;;;5046524;28;20428;-78
2022/06/29 10:29:09;;;;;;;4.25;2.00;;;36.30;79.70;;;;;;5065978;28;20049;-76
2022/06/29 10:32:00;;;;;;;6.53;1.90;;;37.20;77.40;;;;;;5064768;28;20111;-76
2022/06/29 10:34:28;;;;;;;4.80;2.13;;;37.60;73.50;;;;;;5069653;28;20060;-75
2022/06/29 10:37:11;;;;;;;3.70;2.10;;;36.60;71.20;;;;;;5072571;28;20039;-77
2022/06/29 10:39:45;;;;;;;6.05;1.85;;;36.40;73.00;;;;;;5084551;28;20051;-78
2022/06/29 10:45:13;;;;;;;2.65;1.83;;;36.60;69.60;;;;;;5049291;28;20415;-77
2022/06/29 10:47:39;;;;;;;3.75;1.80;;;36.50;69.80;;;;;;5065537;28;20508;-76
2022/06/29 10:50:14;;;;;;;2.80;1.70;;;36.80;71.20;;;;;;5064592;28;20040;-76
2022/06/29 10:52:41;;;;;;;3.45;2.00;;;36.20;71.40;;;;;;5047366;28;20053;-72
2022/06/29 10:55:07;;;;;;;4.40;2.00;;;35.10;71.30;;;;;;5031296;28;20132;-72
2022/06/29 10:57:34;;;;;;;2.92;1.92;;;33.90;72.90;;;;;;5052684;28;20044;-72
2022/06/29 11:00:04;;;;;;;3.90;1.88;;;34.10;73.50;;;;;;5053206;28;20041;-73
2022/06/29 11:02:29;;;;;;;4.03;2.03;;;34.20;72.90;;;;;;5068741;28;20055;-73
2022/06/29 11:04:55;;;;;;;2.88;1.88;;;34.60;73.40;;;;;;5083730;28;20052;-73
2022/06/29 11:12:51;;;;;;;7.67;1.80;;;37.00;69.80;;;;;;5068688;28;20289;-73
2022/06/29 11:15:39;;;;;;;5.22;1.67;;;37.80;70.60;;;;;;5049798;28;20299;-73
2022/06/29 11:18:05;;;;;;;3.58;1.70;;;37.10;67.00;;;;;;5069024;28;20067;-72
2022/06/29 11:20:31;;;;;;;4.60;1.67;;;35.20;68.70;;;;;;5053058;28;20064;-72
2022/06/29 11:22:58;;;;;;;3.97;1.60;;;35.00;70.20;;;;;;5047859;28;20048;-72
2022/06/29 11:25:25;;;;;;;2.83;1.60;;;34.10;69.60;;;;;;5048671;28;20040;-74
2022/06/29 11:27:51;;;;;;;4.97;1.70;;;33.20;70.90;;;;;;5047436;28;20455;-72
2022/06/29 11:30:22;;;;;;;3.33;1.60;;;32.90;71.00;;;;;;5063536;28;20061;-72
2022/06/29 11:32:48;;;;;;;3.92;1.60;;;33.00;71.40;;;;;;5048223;28;20041;-72
2022/06/29 11:35:16;;;;;;;3.28;1.52;;;32.40;71.00;;;;;;5047771;28;20067;-71
2022/06/29 11:38:01;;;;;;;4.25;1.70;;;32.20;70.90;;;;;;5047305;28;20464;-71
2022/06/29 11:40:37;;;;;;;;;;;32.30;69.30;;;;;;5047718;28;20041;-72
2022/06/29 11:43:16;;;;;;;3.58;1.80;;;33.00;68.90;;;;;;5046415;28;20380;-71
2022/06/29 11:45:53;;;;;;;7.97;1.80;;;34.80;69.40;;;;;;5046744;28;20049;-74
2022/06/29 11:48:27;;;;;;;3.33;1.83;;;37.20;67.00;;;;;;5047584;28;20122;-71
2022/06/29 11:51:10;;;;;;;2.95;1.70;;;38.90;65.90;;;;;;5047729;28;20049;-74
2022/06/29 11:53:44;;;;;;;4.15;1.60;;;39.80;65.80;;;;;;5048061;28;20056;-72
2022/06/29 11:56:18;;;;;;;2.85;1.80;;;41.30;63.90;;;;;;5028138;28;20063;-72
2022/06/29 11:58:49;;;;;;;;;;;40.50;61.60;;;;;;5030375;28;20045;-73
2022/06/29 12:01:19;;;;;;;4.18;1.80;;;40.30;59.70;;;;;;5047671;28;20028;-73
2022/06/29 12:03:50;;;;;;;3.17;1.63;;;42.10;61.60;;;;;;5062481;28;20057;-73
2022/06/29 12:06:17;;;;;;;2.83;1.55;;;42.90;59.90;;;;;;5046545;28;20064;-73
2022/06/29 12:08:42;;;;;;;3.03;1.45;;;42.60;58.60;;;;;;5047212;28;20045;-73
2022/06/29 12:11:08;;;;;;;4.03;1.80;;;42.30;57.20;;;;;;5045703;28;20067;-73
2022/06/29 12:13:34;;;;;;;2.10;1.42;;;42.10;56.90;;;;;;5048079;28;20037;-73
2022/06/29 12:16:00;;;;;;;4.47;1.73;;;41.10;56.60;;;;;;5047176;28;20084;-73
2022/06/29 12:18:25;;;;;;;4.72;1.80;;;39.60;57.10;;;;;;5047265;28;20120;-73
2022/06/29 12:20:51;;;;;;;2.65;1.70;;;39.00;58.30;;;;;;5045206;28;20048;-73
2022/06/29 12:23:17;;;;;;;4.68;1.70;;;37.30;58.00;;;;;;5066235;28;20378;-73
2022/06/29 12:25:44;;;;;;;2.95;1.90;;;36.30;59.10;;;;;;5066536;28;20131;-72
2022/06/29 12:28:09;;;;;;;5.30;1.60;;;35.80;61.00;;;;;;5066651;28;20051;-73
2022/06/29 12:30:36;;;;;;;3.25;1.70;;;34.60;59.70;;;;;;5059712;28;20068;-72
2022/06/29 12:33:02;;;;;;;3.35;2.00;;;33.80;61.10;;;;;;5047079;28;20052;-74
2022/06/29 12:35:28;;;;;;;7.20;2.20;;;33.10;62.50;;;;;;5047880;28;20048;-74
2022/06/29 12:37:57;;;;;;;4.25;1.98;;;32.30;63.50;;;;;;5047206;28;20037;-74
2022/06/29 12:40:24;;;;;;;4.28;2.25;;;31.90;63.60;;;;;;5047541;28;20044;-73
2022/06/29 12:42:51;;;;;;;5.47;2.70;;;31.00;64.80;;;;;;5047227;28;20445;-73
2022/06/29 12:45:16;;;;;;;4.45;2.30;;;30.50;65.50;;;;;;5046217;28;20060;-73
2022/06/29 12:47:42;;;;;;;6.93;2.30;;;30.40;66.40;;;;;;5063116;28;20049;-72
2022/06/29 12:50:08;;;;;;;6.38;2.20;;;30.10;67.80;;;;;;5046638;28;20049;-72
2022/06/29 12:52:33;;;;;;;3.60;2.42;;;30.20;68.10;;;;;;5047471;28;20041;-73
2022/06/29 12:54:59;;;;;;;4.75;2.67;;;29.80;68.00;;;;;;5051222;28;20037;-73
2022/06/29 12:57:24;;;;;;;3.70;2.50;;;29.80;69.00;;;;;;5050442;28;20048;-73
2022/06/29 12:59:50;;;;;;;6.75;2.85;;;29.70;69.60;;;;;;5033310;28;20052;-73
2022/06/29 13:02:21;;;;;;;5.28;2.63;;;29.70;70.40;;;;;;5050675;28;20041;-73
2022/06/29 13:04:48;;;;;;;6.13;2.85;;;29.90;70.40;;;;;;5033179;28;20052;-73
2022/06/29 13:07:14;;;;;;;4.95;2.80;;;29.80;70.10;;;;;;5049478;28;20114;-73
2022/06/29 13:09:39;;;;;;;5.97;2.95;;;29.70;70.10;;;;;;5050634;28;20886;-73